Etusivu
METAR-TAF:

METAR-TAF

Lentoasemat :

Omaha, Nebraska, Yhdysvallat

Leveyspiiri: 41-11-45N, Pituuspiiri: 096-06-44W, korkeus merenpinnasta: 320 m

Tämänhetkinen sää

Tämä raportti tehtiin 20 minuuttia sitten, kello 20.35 UTC
Tuuli 11 kn lännestä/luoteesta puuskistuen 15 kn:hen
Lämpötila 3°C
Kosteus 32%
Ilmanpaine 1026 hPa
Näkyvyys: 16.1 km
selkeää

METAR: KMLE 262035Z AUTO 29011G15KT 10SM CLR 03/M12 A3031 RMK AO2 T00331124

Aika: 14:55 (20:55 UTC)


TAF: puuttuu

Säähavainnot ja -ennusteet yli 4000 lentoasemalta (METAR- ja TAF-raportit).

Käytössä olevat sääasemat on merkitty karttaan keltaisilla ja punaisilla pisteillä.

Aseta hiiri pisteen päälle nähdäksesi sääaseman nimen.

Klikkaa sitten nähdäksesi säähavainnot ja -ennusteet.

Kartan vaihtaminen: klikkaa mustalla rastilla varustettuja vihreitä pisteitä, niin voit zoomata sisään; viivalla varustettua vihreää pistettä, niin voit zoomata ulos tai vihreitä nuolia, niin pääset viereisille kartoille.


METAR-TAF: